Repubblicadelbrasile — IBZB — position and weather

sailwx.info

Track history (hours):
 
Tides and Currents Weather Stations Pressure Air Temp Water Temp Dewpoint Dewpoint Depression Visibility Wind Speed Wind Dir Waves Ship Positions

Repubblicadelbrasile

Last reported at 2017-Jun-21 07:48 UTC. Time now 2017-Jun-23 17:21 UTC.
Position N 04°28' W 002°07'.

Length 210 m; draft 7.6 m.

Type: Ship. MMSI: 247310000.

Date/timePositionNaut miles runAvg speedWind from/ knotsBaromVisibWave heightAir tempDewpointWater temp
2017-Jun-21 07:48N 04°28' W 002°07'517.9
2017-Jun-21 07:30N 04°29' W 002°02'917.8
2017-Jun-21 06:59N 04°31' W 001°53'918.1
2017-Jun-21 06:29N 04°35' W 001°45'817.7
2017-Jun-21 06:00N 04°37' W 001°37'918.1
2017-Jun-21 05:30N 04°38' W 001°28'917.3
2017-Jun-21 05:00N 04°43' W 001°20'916.9
2017-Jun-21 04:30N 04°47' W 001°13'918.2
2017-Jun-21 03:59N 04°49' W 001°03'5418.4
2017-Jun-21 01:05N 05°04' W 000°12'118.5
2017-Jun-21 01:00N 05°04' W 000°11'918.5
2017-Jun-21 00:30N 05°06' W 000°02'1019.0
2017-Jun-21 00:00N 05°08' E 000°08'918.6
2017-Jun-20 23:30N 05°12' E 000°16'918.8
2017-Jun-20 23:00N 05°16' E 000°25'1018.8
2017-Jun-20 22:30N 05°19' E 000°34'99 2.3
2017-Jun-19 04:02N 06°04' E 002°03'4 0.7
2017-Jun-18 22:43N 06°00' E 002°02'44 1.4
2017-Jun-17 15:54N 06°08' E 001°18'6 1.2
2017-Jun-17 11:03N 06°02' E 001°18'0 0.1
2017-Jun-17 10:57N 06°02' E 001°18'0 0.0
2017-Jun-17 10:30N 06°02' E 001°18'0 0.0
2017-Jun-17 10:00N 06°02' E 001°18'0 0.1
2017-Jun-17 09:27N 06°02' E 001°18'0 0.0
2017-Jun-17 09:00N 06°02' E 001°18'0 0.0
2017-Jun-17 08:30N 06°02' E 001°18'0 0.0
2017-Jun-17 07:57N 06°02' E 001°18'0 0.0
2017-Jun-17 07:18N 06°02' E 001°18'5710.0
2017-Jun-17 01:36N 05°22' E 000°38'217.4
2017-Jun-17 01:29N 05°21' E 000°36'1217.5
2017-Jun-17 00:49N 05°18' E 000°25'517.3
2017-Jun-17 00:31N 05°16' E 000°20'917.2
2017-Jun-17 00:00N 05°13' E 000°12'917.2
2017-Jun-16 23:30N 05°09' E 000°04'917.3
2017-Jun-16 23:00N 05°06' W 000°04'917.4
2017-Jun-16 22:30N 05°02' W 000°12'917.4
2017-Jun-16 22:00N 04°59' W 000°20'1217.3
2017-Jun-16 21:19N 04°55' W 000°31'617.6
2017-Jun-16 21:00N 04°53' W 000°37'917.5
2017-Jun-16 20:30N 04°50' W 000°45'1417.4
2017-Jun-16 19:41N 04°46' W 000°59'  
Track history (hours):
 
Tides and Currents Weather Stations Pressure Air Temp Water Temp Dewpoint Dewpoint Depression Visibility Wind Speed Wind Dir Waves Ship Positions

Repubblicadelbrasile

Last reported at 2017-Jun-21 07:48 UTC. Time now 2017-Jun-23 17:21 UTC.
Position N 04°28' W 002°07'.

Length 210 m; draft 7.6 m.

Type: Ship. MMSI: 247310000.

Date/timePositionNaut miles runAvg speedWind from/ knotsBaromVisibWave heightAir tempDewpointWater temp
2017-Jun-21 07:48N 04°28' W 002°07'517.9
2017-Jun-21 07:30N 04°29' W 002°02'917.8
2017-Jun-21 06:59N 04°31' W 001°53'918.1
2017-Jun-21 06:29N 04°35' W 001°45'817.7
2017-Jun-21 06:00N 04°37' W 001°37'918.1
2017-Jun-21 05:30N 04°38' W 001°28'917.3
2017-Jun-21 05:00N 04°43' W 001°20'916.9
2017-Jun-21 04:30N 04°47' W 001°13'918.2
2017-Jun-21 03:59N 04°49' W 001°03'5418.4
2017-Jun-21 01:05N 05°04' W 000°12'118.5
2017-Jun-21 01:00N 05°04' W 000°11'918.5
2017-Jun-21 00:30N 05°06' W 000°02'1019.0
2017-Jun-21 00:00N 05°08' E 000°08'918.6
2017-Jun-20 23:30N 05°12' E 000°16'918.8
2017-Jun-20 23:00N 05°16' E 000°25'1018.8
2017-Jun-20 22:30N 05°19' E 000°34'99 2.3
2017-Jun-19 04:02N 06°04' E 002°03'4 0.7
2017-Jun-18 22:43N 06°00' E 002°02'44 1.4
2017-Jun-17 15:54N 06°08' E 001°18'6 1.2
2017-Jun-17 11:03N 06°02' E 001°18'0 0.1
2017-Jun-17 10:57N 06°02' E 001°18'0 0.0
2017-Jun-17 10:30N 06°02' E 001°18'0 0.0
2017-Jun-17 10:00N 06°02' E 001°18'0 0.1
2017-Jun-17 09:27N 06°02' E 001°18'0 0.0
2017-Jun-17 09:00N 06°02' E 001°18'0 0.0
2017-Jun-17 08:30N 06°02' E 001°18'0 0.0
2017-Jun-17 07:57N 06°02' E 001°18'0 0.0
2017-Jun-17 07:18N 06°02' E 001°18'5710.0
2017-Jun-17 01:36N 05°22' E 000°38'217.4
2017-Jun-17 01:29N 05°21' E 000°36'1217.5
2017-Jun-17 00:49N 05°18' E 000°25'517.3
2017-Jun-17 00:31N 05°16' E 000°20'917.2
2017-Jun-17 00:00N 05°13' E 000°12'917.2
2017-Jun-16 23:30N 05°09' E 000°04'917.3
2017-Jun-16 23:00N 05°06' W 000°04'917.4
2017-Jun-16 22:30N 05°02' W 000°12'917.4
2017-Jun-16 22:00N 04°59' W 000°20'1217.3
2017-Jun-16 21:19N 04°55' W 000°31'617.6
2017-Jun-16 21:00N 04°53' W 000°37'917.5
2017-Jun-16 20:30N 04°50' W 000°45'1417.4
2017-Jun-16 19:41N 04°46' W 000°59'  

Dump ship's entire track history